Time;durP1;ratioP1;P1;durP2;ratioP2;P2;SDS_P1;SDS_P2;PMS_P1;PMS_P2;Temp;Humidity;BMP_temperature;BMP_pressure;BME280_temperature;BME280_humidity;BME280_pressure;Samples;Min_cycle;Max_cycle;Signal;HPM_P1;HPM_P2
2022/05/13 00:00:47;;;;;;;0.63;0.63;;;15.60;99.90;;;;;;5073810;28;20178;-72
2022/05/13 00:03:13;;;;;;;0.30;0.30;;;15.50;99.90;;;;;;5072552;28;20205;-71
2022/05/13 00:05:39;;;;;;;1.17;1.13;;;15.50;99.90;;;;;;5073791;28;20169;-72
2022/05/13 00:08:05;;;;;;;0.40;0.40;;;15.50;99.90;;;;;;5073914;28;20181;-72
2022/05/13 00:10:30;;;;;;;0.40;0.40;;;15.60;99.90;;;;;;5072242;28;20214;-72
2022/05/13 00:12:56;;;;;;;0.40;0.40;;;15.70;99.90;;;;;;5073888;28;20835;-72
2022/05/13 00:15:24;;;;;;;0.30;0.30;;;15.70;99.90;;;;;;5073678;28;20695;-72
2022/05/13 00:17:54;;;;;;;1.07;1.00;;;15.80;99.90;;;;;;5073774;28;20556;-71
2022/05/13 00:20:21;;;;;;;0.30;0.30;;;15.90;99.90;;;;;;5073621;28;20409;-72
2022/05/13 00:22:49;;;;;;;0.40;0.40;;;15.80;99.90;;;;;;5073533;28;20503;-72
2022/05/13 00:25:18;;;;;;;0.50;0.50;;;15.70;99.90;;;;;;5073588;28;20487;-72
2022/05/13 00:27:44;;;;;;;0.30;0.30;;;15.50;99.90;;;;;;5073764;28;20918;-71
2022/05/13 00:30:10;;;;;;;0.30;0.30;;;15.50;99.90;;;;;;5073383;28;20445;-72
2022/05/13 00:32:36;;;;;;;0.57;0.57;;;15.40;99.90;;;;;;5073622;28;20287;-72
2022/05/13 00:35:04;;;;;;;0.50;0.50;;;15.50;99.90;;;;;;5073451;28;20496;-72
2022/05/13 00:37:29;;;;;;;1.60;1.60;;;15.50;99.90;;;;;;5073386;28;20490;-72
2022/05/13 00:39:55;;;;;;;0.30;0.30;;;15.60;99.90;;;;;;5073408;28;20493;-72
2022/05/13 00:42:22;;;;;;;0.30;0.30;;;15.50;99.90;;;;;;5073241;28;20248;-72
2022/05/13 00:44:48;;;;;;;0.90;0.90;;;15.50;99.90;;;;;;5073456;28;20172;-72
2022/05/13 00:47:14;;;;;;;0.30;0.30;;;15.60;99.90;;;;;;5073540;28;20773;-72
2022/05/13 00:49:41;;;;;;;0.30;0.30;;;15.60;99.90;;;;;;5073397;28;20442;-72
2022/05/13 00:52:09;;;;;;;0.30;0.30;;;15.70;99.90;;;;;;5073129;28;20161;-72
2022/05/13 00:54:38;;;;;;;0.50;0.50;;;15.60;99.90;;;;;;5073062;28;20495;-72
2022/05/13 00:57:04;;;;;;;0.30;0.30;;;15.70;99.90;;;;;;5073467;28;20420;-72
2022/05/13 00:59:33;;;;;;;0.30;0.30;;;15.70;99.90;;;;;;5071964;28;20848;-72
2022/05/13 01:01:59;;;;;;;0.30;0.30;;;15.70;99.90;;;;;;5073031;28;20837;-72
2022/05/13 01:04:26;;;;;;;0.30;0.30;;;15.70;99.90;;;;;;5073158;28;20480;-72
2022/05/13 01:06:56;;;;;;;0.50;0.50;;;15.60;99.90;;;;;;5073210;28;20268;-72
2022/05/13 01:09:23;;;;;;;1.07;0.70;;;15.60;99.90;;;;;;5076387;28;20434;-72
2022/05/13 01:11:53;;;;;;;0.30;0.30;;;15.60;99.90;;;;;;5077081;28;20767;-72
2022/05/13 01:14:26;;;;;;;0.30;0.30;;;15.60;99.90;;;;;;5077080;28;20441;-72
2022/05/13 01:19:36;;;;;;;0.30;0.30;;;15.70;99.90;;;;;;5077161;28;20411;-72
2022/05/13 01:22:13;;;;;;;0.40;0.40;;;15.70;99.90;;;;;;5076539;28;20406;-72
2022/05/13 01:24:38;;;;;;;0.40;0.40;;;15.70;99.90;;;;;;5076722;28;20837;-72
2022/05/13 01:27:04;;;;;;;0.30;0.30;;;15.80;99.90;;;;;;5075602;28;20423;-72
2022/05/13 01:29:30;;;;;;;0.50;0.50;;;15.80;99.90;;;;;;5077069;28;20204;-72
2022/05/13 01:31:55;;;;;;;0.30;0.30;;;15.90;99.90;;;;;;5076610;28;20407;-72
2022/05/13 01:34:21;;;;;;;0.30;0.30;;;15.90;99.90;;;;;;5076576;28;20182;-71
2022/05/13 01:36:47;;;;;;;0.30;0.30;;;15.70;99.90;;;;;;5076708;28;20169;-72
2022/05/13 01:39:12;;;;;;;1.63;1.57;;;15.80;99.90;;;;;;5076637;28;20282;-72
2022/05/13 01:41:38;;;;;;;0.30;0.30;;;15.80;99.90;;;;;;5076285;28;20213;-72
2022/05/13 01:44:04;;;;;;;1.13;0.87;;;15.70;99.90;;;;;;5076420;28;20225;-72
2022/05/13 01:46:30;;;;;;;0.30;0.30;;;15.70;99.90;;;;;;5076451;28;20179;-71
2022/05/13 01:48:56;;;;;;;0.30;0.30;;;15.70;99.90;;;;;;5076399;28;20538;-72
2022/05/13 01:51:21;;;;;;;0.30;0.30;;;15.70;99.90;;;;;;5076145;28;20165;-71
2022/05/13 01:53:47;;;;;;;0.70;0.70;;;15.60;99.90;;;;;;5076445;28;20198;-72
2022/05/13 01:56:13;;;;;;;0.40;0.40;;;15.50;99.90;;;;;;5076169;28;20500;-72
2022/05/13 01:58:39;;;;;;;0.30;0.30;;;15.50;99.90;;;;;;5076395;28;20228;-72
2022/05/13 02:01:06;;;;;;;0.30;0.30;;;15.60;99.90;;;;;;5076049;28;20394;-72
2022/05/13 02:03:45;;;;;;;0.30;0.30;;;15.70;99.90;;;;;;5076033;28;20545;-72
2022/05/13 02:06:22;;;;;;;0.30;0.30;;;15.70;99.90;;;;;;5076327;28;20427;-72
2022/05/13 02:08:49;;;;;;;0.30;0.30;;;15.70;99.90;;;;;;5076113;28;20750;-72
2022/05/13 02:11:17;;;;;;;0.60;0.50;;;15.80;99.90;;;;;;5075776;28;20499;-72
2022/05/13 02:13:43;;;;;;;0.30;0.30;;;15.80;99.90;;;;;;5074624;28;20442;-72
2022/05/13 02:16:10;;;;;;;0.30;0.30;;;15.80;99.90;;;;;;5075985;28;20433;-72
2022/05/13 02:18:36;;;;;;;0.30;0.30;;;15.80;99.90;;;;;;5076009;28;20410;-72
2022/05/13 02:21:03;;;;;;;0.33;0.33;;;15.80;99.90;;;;;;5074962;28;20407;-72
2022/05/13 02:23:29;;;;;;;0.30;0.30;;;15.70;99.90;;;;;;5075543;28;20208;-72
2022/05/13 02:26:00;;;;;;;0.30;0.30;;;15.80;99.90;;;;;;5075888;28;20408;-72
2022/05/13 02:28:27;;;;;;;0.40;0.40;;;15.80;99.90;;;;;;5075690;28;20399;-72
2022/05/13 02:30:53;;;;;;;2.03;1.93;;;15.80;99.90;;;;;;5075462;28;20462;-72
2022/05/13 02:33:18;;;;;;;0.30;0.30;;;15.70;99.90;;;;;;5075644;28;20793;-72
2022/05/13 02:35:44;;;;;;;0.30;0.30;;;15.80;99.90;;;;;;5075455;28;20407;-72
2022/05/13 02:38:13;;;;;;;0.47;0.47;;;15.80;99.90;;;;;;5075425;28;20171;-72
2022/05/13 02:43:24;;;;;;;0.30;0.30;;;15.90;99.90;;;;;;5075456;28;20942;-72
2022/05/13 02:45:50;;;;;;;0.30;0.30;;;15.90;99.90;;;;;;5074008;28;20998;-72
2022/05/13 02:48:15;;;;;;;0.60;0.53;;;15.80;99.90;;;;;;5075472;28;20399;-72
2022/05/13 02:50:41;;;;;;;0.30;0.30;;;15.90;99.90;;;;;;5074934;28;20670;-72
2022/05/13 02:53:07;;;;;;;0.50;0.50;;;15.90;99.90;;;;;;5073921;28;20196;-72
2022/05/13 02:55:33;;;;;;;0.30;0.30;;;15.80;99.90;;;;;;5075385;28;20161;-72
2022/05/13 02:57:59;;;;;;;0.30;0.30;;;15.80;99.90;;;;;;5075332;28;20410;-72
2022/05/13 03:00:24;;;;;;;0.30;0.30;;;15.80;99.90;;;;;;5074963;28;20404;-72
2022/05/13 03:02:50;;;;;;;0.40;0.40;;;15.80;99.90;;;;;;5073783;28;20665;-72
2022/05/13 03:05:15;;;;;;;0.40;0.40;;;15.80;99.90;;;;;;5074932;28;20187;-72
2022/05/13 03:07:41;;;;;;;0.40;0.40;;;15.80;99.90;;;;;;5075137;28;20183;-72
2022/05/13 03:10:08;;;;;;;0.30;0.30;;;15.80;99.90;;;;;;5074638;28;20201;-72
2022/05/13 03:12:35;;;;;;;0.60;0.60;;;15.90;99.90;;;;;;5073589;28;20195;-72
2022/05/13 03:15:01;;;;;;;0.30;0.30;;;15.90;99.90;;;;;;5074800;28;20408;-72
2022/05/13 03:17:28;;;;;;;0.30;0.30;;;15.90;99.90;;;;;;5074555;28;20409;-72
2022/05/13 03:19:54;;;;;;;0.50;0.50;;;15.90;99.90;;;;;;5074641;28;20924;-72
2022/05/13 03:22:19;;;;;;;0.30;0.30;;;15.90;99.90;;;;;;5074203;28;20523;-72
2022/05/13 03:24:45;;;;;;;0.40;0.40;;;15.80;99.90;;;;;;5074710;28;20406;-72
2022/05/13 03:27:11;;;;;;;0.30;0.30;;;15.70;99.90;;;;;;5074695;28;20179;-72
2022/05/13 03:29:36;;;;;;;0.30;0.30;;;15.70;99.90;;;;;;5074509;28;20242;-72
2022/05/13 03:32:05;;;;;;;0.40;0.40;;;15.80;99.90;;;;;;5073072;28;20587;-72
2022/05/13 03:34:31;;;;;;;0.30;0.30;;;15.80;99.90;;;;;;5074320;28;20249;-72
2022/05/13 03:36:57;;;;;;;0.30;0.30;;;15.80;99.90;;;;;;5074371;28;20783;-72
2022/05/13 03:39:23;;;;;;;0.30;0.30;;;15.80;99.90;;;;;;5074339;28;20228;-72
2022/05/13 03:41:49;;;;;;;0.30;0.30;;;15.90;99.90;;;;;;5074250;28;20486;-72
2022/05/13 03:44:15;;;;;;;0.40;0.40;;;15.90;99.90;;;;;;5072807;28;20467;-72
2022/05/13 03:46:40;;;;;;;0.30;0.30;;;15.80;99.90;;;;;;5074225;28;20183;-72
2022/05/13 03:49:06;;;;;;;0.40;0.40;;;15.80;99.90;;;;;;5073938;28;20443;-72
2022/05/13 03:51:32;;;;;;;0.30;0.30;;;15.80;99.90;;;;;;5073912;28;20169;-72
2022/05/13 03:53:58;;;;;;;0.30;0.30;;;15.90;99.90;;;;;;5073892;28;20427;-72
2022/05/13 03:56:24;;;;;;;0.30;0.30;;;15.90;99.90;;;;;;5074128;28;21023;-72
2022/05/13 03:58:50;;;;;;;0.40;0.40;;;15.90;99.90;;;;;;5074013;28;20403;-72
2022/05/13 04:01:16;;;;;;;0.40;0.40;;;15.90;99.90;;;;;;5073705;28;20408;-72
2022/05/13 04:03:42;;;;;;;0.30;0.30;;;15.90;99.90;;;;;;5073746;28;20268;-72
2022/05/13 04:09:12;;;;;;;0.30;0.30;;;15.80;99.90;;;;;;5091787;28;20551;-72
2022/05/13 04:11:40;;;;;;;0.30;0.30;;;15.90;99.90;;;;;;5091701;28;20410;-72
2022/05/13 04:16:55;;;;;;;0.30;0.30;;;15.90;99.90;;;;;;5073890;28;20395;-72
2022/05/13 04:19:21;;;;;;;0.30;0.30;;;15.90;99.90;;;;;;5073843;28;20411;-72
2022/05/13 04:21:48;;;;;;;0.50;0.50;;;16.00;99.90;;;;;;5073385;28;20434;-72
2022/05/13 04:24:16;;;;;;;0.30;0.30;;;15.90;99.90;;;;;;5073498;28;20830;-72
2022/05/13 04:26:42;;;;;;;0.30;0.30;;;16.00;99.90;;;;;;5073752;28;20400;-72
2022/05/13 04:29:08;;;;;;;0.30;0.30;;;16.00;99.90;;;;;;5073371;28;20454;-71
2022/05/13 04:31:38;;;;;;;0.30;0.30;;;16.00;99.90;;;;;;5073446;28;20756;-72
2022/05/13 04:34:05;;;;;;;0.30;0.30;;;16.10;99.90;;;;;;5072155;28;20439;-72
2022/05/13 04:36:30;;;;;;;0.30;0.30;;;16.00;99.90;;;;;;5073624;28;20919;-72
2022/05/13 04:38:57;;;;;;;0.40;0.40;;;16.00;99.90;;;;;;5073527;28;20398;-72
2022/05/13 04:44:09;;;;;;;0.57;0.57;;;16.10;99.90;;;;;;5073194;28;20499;-72
2022/05/13 04:46:36;;;;;;;0.30;0.30;;;16.10;99.90;;;;;;5073499;28;20404;-72
2022/05/13 04:49:02;;;;;;;0.30;0.30;;;16.00;99.90;;;;;;5071672;28;20467;-72
2022/05/13 04:51:28;;;;;;;0.30;0.30;;;16.00;99.90;;;;;;5072609;28;20429;-73
2022/05/13 04:53:56;;;;;;;0.30;0.30;;;16.00;99.90;;;;;;5073421;28;20428;-73
2022/05/13 04:56:22;;;;;;;0.40;0.40;;;16.00;99.90;;;;;;5073609;28;20168;-73
2022/05/13 04:58:48;;;;;;;0.40;0.40;;;16.00;99.90;;;;;;5073638;28;20846;-73
2022/05/13 05:01:16;;;;;;;0.53;0.50;;;16.10;99.90;;;;;;5073059;28;20415;-74
2022/05/13 05:03:43;;;;;;;0.30;0.30;;;16.10;99.90;;;;;;5073132;28;20434;-73
2022/05/13 05:06:09;;;;;;;0.93;0.93;;;16.00;99.90;;;;;;5073171;28;20465;-72
2022/05/13 05:08:36;;;;;;;0.30;0.30;;;16.00;99.90;;;;;;5073494;28;20404;-74
2022/05/13 05:11:03;;;;;;;0.30;0.30;;;16.00;99.90;;;;;;5072802;28;20515;-72
2022/05/13 05:13:34;;;;;;;0.30;0.30;;;16.00;99.90;;;;;;5073180;28;20492;-74
2022/05/13 05:16:00;;;;;;;0.40;0.40;;;16.10;99.90;;;;;;5073181;28;20392;-73
2022/05/13 05:18:26;;;;;;;0.30;0.30;;;16.10;99.90;;;;;;5071834;28;20420;-74
2022/05/13 05:20:52;;;;;;;0.67;0.67;;;16.10;99.90;;;;;;5072794;28;20498;-74
2022/05/13 05:23:21;;;;;;;0.60;0.60;;;16.10;99.90;;;;;;5071530;28;20505;-74
2022/05/13 05:25:46;;;;;;;0.30;0.30;;;16.10;99.90;;;;;;5073147;28;20752;-72
2022/05/13 05:28:12;;;;;;;0.30;0.30;;;16.10;99.90;;;;;;5073033;28;20413;-72
2022/05/13 05:30:39;;;;;;;0.30;0.30;;;16.10;99.90;;;;;;5072591;28;20270;-74
2022/05/13 05:33:05;;;;;;;0.30;0.30;;;16.20;99.90;;;;;;5072978;28;20197;-73
2022/05/13 05:35:31;;;;;;;0.30;0.30;;;16.10;99.90;;;;;;5073082;28;20774;-73
2022/05/13 05:37:57;;;;;;;4.23;1.80;;;16.10;99.90;;;;;;5071615;28;20453;-74
2022/05/13 05:40:23;;;;;;;0.30;0.30;;;16.20;99.90;;;;;;5072751;28;20454;-73
2022/05/13 05:42:49;;;;;;;0.30;0.30;;;16.20;99.90;;;;;;5072825;28;20189;-73
2022/05/13 05:45:17;;;;;;;0.30;0.30;;;16.20;99.90;;;;;;5072734;28;20461;-73
2022/05/13 05:47:43;;;;;;;0.40;0.40;;;16.20;99.90;;;;;;5073134;28;20173;-72
2022/05/13 05:50:12;;;;;;;0.30;0.30;;;16.20;99.90;;;;;;5072407;28;20466;-73
2022/05/13 05:52:38;;;;;;;0.30;0.30;;;16.30;99.90;;;;;;5072534;28;20423;-73
2022/05/13 05:58:05;;;;;;;0.40;0.40;;;16.50;99.90;;;;;;5076606;28;20481;-73
2022/05/13 06:00:33;;;;;;;0.30;0.30;;;16.50;99.90;;;;;;5076197;28;20755;-73
2022/05/13 06:02:58;;;;;;;0.30;0.30;;;16.60;99.90;;;;;;5075991;28;20524;-73
2022/05/13 06:05:25;;;;;;;0.37;0.37;;;16.60;99.90;;;;;;5076059;28;20498;-73
2022/05/13 06:07:54;;;;;;;0.50;0.50;;;16.60;99.90;;;;;;5076342;28;20170;-74
2022/05/13 06:10:19;;;;;;;0.30;0.30;;;16.70;99.90;;;;;;5075709;28;20885;-72
2022/05/13 06:12:45;;;;;;;0.60;0.60;;;16.70;99.90;;;;;;5074892;28;20510;-73
2022/05/13 06:15:12;;;;;;;0.30;0.30;;;16.80;99.90;;;;;;5074631;28;20430;-73
2022/05/13 06:17:47;;;;;;;0.30;0.30;;;16.80;99.90;;;;;;5076176;28;20179;-73
2022/05/13 06:20:14;;;;;;;0.43;0.43;;;16.70;99.90;;;;;;5076068;28;20407;-73
2022/05/13 06:22:40;;;;;;;0.30;0.30;;;16.70;99.90;;;;;;5075862;28;20803;-73
2022/05/13 06:25:08;;;;;;;0.30;0.30;;;16.60;99.90;;;;;;5076420;28;20418;-73
2022/05/13 06:27:34;;;;;;;0.87;0.87;;;16.60;99.90;;;;;;5073182;28;20181;-73
2022/05/13 06:29:59;;;;;;;0.30;0.30;;;16.60;99.90;;;;;;5074949;28;20748;-73
2022/05/13 06:32:25;;;;;;;0.40;0.40;;;16.60;99.90;;;;;;5075539;28;20226;-71
2022/05/13 06:34:51;;;;;;;1.43;0.97;;;16.70;99.90;;;;;;5073163;28;20629;-71
2022/05/13 06:37:18;;;;;;;0.30;0.30;;;16.70;99.90;;;;;;5076158;28;20174;-71
2022/05/13 06:39:48;;;;;;;1.10;1.07;;;16.70;99.90;;;;;;5075546;28;20419;-72
2022/05/13 06:42:16;;;;;;;0.30;0.30;;;16.70;99.90;;;;;;5072082;28;20435;-73
2022/05/13 06:44:46;;;;;;;0.33;0.33;;;16.70;99.90;;;;;;5075307;28;20514;-73
2022/05/13 06:47:13;;;;;;;0.30;0.30;;;16.70;99.90;;;;;;5074887;28;20439;-72
2022/05/13 06:49:39;;;;;;;0.40;0.40;;;16.60;99.90;;;;;;5072232;28;20467;-70
2022/05/13 06:52:06;;;;;;;0.30;0.30;;;16.50;99.90;;;;;;5075053;28;20414;-71
2022/05/13 06:54:32;;;;;;;0.30;0.30;;;16.50;99.90;;;;;;5074178;28;20529;-69
2022/05/13 06:56:58;;;;;;;0.30;0.30;;;16.40;99.90;;;;;;5074072;28;20491;-71
2022/05/13 06:59:25;;;;;;;0.80;0.80;;;16.40;99.90;;;;;;5075497;28;20408;-71
2022/05/13 07:01:51;;;;;;;0.50;0.50;;;16.50;99.90;;;;;;5075330;28;20419;-70
2022/05/13 07:04:17;;;;;;;0.30;0.30;;;16.60;99.90;;;;;;5075561;28;20432;-69
2022/05/13 07:06:43;;;;;;;0.30;0.30;;;16.70;99.90;;;;;;5074007;28;20442;-71
2022/05/13 07:09:09;;;;;;;0.30;0.30;;;16.70;99.90;;;;;;5074907;28;20504;-70
2022/05/13 07:11:35;;;;;;;0.30;0.30;;;16.80;99.90;;;;;;5074883;28;20235;-73
2022/05/13 07:14:01;;;;;;;0.30;0.30;;;16.60;99.90;;;;;;5073875;28;20456;-71
2022/05/13 07:16:27;;;;;;;0.30;0.30;;;16.70;99.90;;;;;;5075151;28;20515;-71
2022/05/13 07:18:53;;;;;;;0.37;0.37;;;16.80;99.90;;;;;;5075323;28;20494;-69
2022/05/13 07:21:18;;;;;;;0.77;0.77;;;17.00;99.90;;;;;;5073517;28;20176;-72
2022/05/13 07:23:44;;;;;;;0.30;0.30;;;16.80;99.90;;;;;;5074532;28;20219;-72
2022/05/13 07:26:10;;;;;;;0.30;0.30;;;16.80;99.90;;;;;;5074769;28;20633;-71
2022/05/13 07:28:38;;;;;;;0.30;0.30;;;16.80;99.90;;;;;;5074754;28;20260;-71
2022/05/13 07:31:05;;;;;;;0.40;0.40;;;16.90;99.90;;;;;;5074368;28;20455;-70
2022/05/13 07:33:31;;;;;;;0.30;0.30;;;16.90;99.90;;;;;;5074530;28;20459;-72
2022/05/13 07:35:57;;;;;;;0.30;0.30;;;16.80;99.90;;;;;;5074797;28;20414;-72
2022/05/13 07:38:23;;;;;;;0.30;0.30;;;17.00;99.90;;;;;;5073021;28;20630;-72
2022/05/13 07:43:34;;;;;;;0.30;0.30;;;17.30;99.90;;;;;;5074019;28;20200;-70
2022/05/13 07:45:59;;;;;;;0.60;0.60;;;17.30;99.90;;;;;;5072098;28;20408;-71
2022/05/13 07:48:25;;;;;;;0.43;0.43;;;17.10;99.90;;;;;;5074453;28;20419;-71
2022/05/13 07:50:52;;;;;;;0.30;0.30;;;17.00;99.90;;;;;;5073979;28;20204;-70
2022/05/13 07:53:18;;;;;;;0.40;0.40;;;16.90;99.90;;;;;;5074218;28;20544;-69
2022/05/13 07:55:43;;;;;;;0.30;0.30;;;16.90;99.90;;;;;;5074264;28;20404;-71
2022/05/13 07:58:09;;;;;;;0.50;0.50;;;16.70;99.90;;;;;;5074347;28;20400;-70
2022/05/13 08:00:36;;;;;;;0.30;0.30;;;16.70;99.90;;;;;;5074148;28;20228;-71
2022/05/13 08:03:07;;;;;;;0.30;0.30;;;16.60;99.90;;;;;;5074450;28;20424;-72
2022/05/13 08:05:40;;;;;;;0.30;0.30;;;16.60;99.90;;;;;;5073951;28;20435;-71
2022/05/13 08:08:33;;;;;;;0.30;0.30;;;16.40;99.90;;;;;;5074434;28;20407;-72
2022/05/13 08:11:01;;;;;;;0.67;0.67;;;16.30;99.90;;;;;;5073639;28;20460;-72
2022/05/13 08:13:30;;;;;;;0.30;0.30;;;16.40;99.90;;;;;;5074007;28;20422;-71
2022/05/13 08:15:59;;;;;;;0.67;0.67;;;16.60;99.90;;;;;;5073794;28;20462;-72
2022/05/13 08:18:27;;;;;;;0.40;0.40;;;16.60;99.90;;;;;;5073210;28;20892;-72
2022/05/13 08:20:53;;;;;;;0.30;0.30;;;16.70;99.90;;;;;;5073590;28;20412;-72
2022/05/13 08:23:20;;;;;;;0.60;0.60;;;16.80;99.90;;;;;;5073443;28;20458;-72
2022/05/13 08:25:46;;;;;;;0.30;0.30;;;16.70;99.90;;;;;;5074225;28;20486;-72
2022/05/13 08:28:14;;;;;;;0.30;0.30;;;16.80;99.90;;;;;;5073567;28;20411;-72
2022/05/13 08:30:40;;;;;;;0.50;0.50;;;16.80;99.90;;;;;;5073217;28;20455;-72
2022/05/13 08:33:08;;;;;;;0.30;0.30;;;16.70;99.90;;;;;;5073610;28;20488;-72
2022/05/13 08:35:35;;;;;;;0.30;0.30;;;16.70;99.90;;;;;;5071521;28;20410;-71
2022/05/13 08:38:03;;;;;;;0.30;0.30;;;16.60;99.90;;;;;;5073269;28;20411;-73
2022/05/13 08:40:35;;;;;;;0.30;0.30;;;16.60;99.90;;;;;;5072429;28;20977;-72
2022/05/13 08:43:09;;;;;;;0.40;0.40;;;16.60;99.90;;;;;;5073311;28;20436;-72
2022/05/13 08:45:37;;;;;;;1.03;0.47;;;16.70;99.90;;;;;;5073348;28;20415;-74
2022/05/13 08:48:08;;;;;;;0.40;0.40;;;16.70;99.90;;;;;;5074054;28;20439;-72
2022/05/13 08:50:38;;;;;;;0.30;0.30;;;16.80;99.90;;;;;;5073181;28;20471;-73
2022/05/13 08:53:32;;;;;;;0.40;0.40;;;16.80;99.90;;;;;;5071401;28;20431;-72
2022/05/13 08:56:05;;;;;;;0.30;0.30;;;16.90;99.90;;;;;;5072765;28;20454;-72
2022/05/13 08:58:37;;;;;;;0.30;0.30;;;17.00;99.90;;;;;;5071551;28;20412;-72
2022/05/13 09:01:09;;;;;;;0.57;0.57;;;17.00;99.90;;;;;;5072631;28;20461;-71
2022/05/13 09:04:02;;;;;;;0.30;0.30;;;17.00;99.90;;;;;;5073374;28;20446;-70
2022/05/13 09:06:40;;;;;;;0.30;0.30;;;17.00;99.90;;;;;;5072960;28;20420;-73
2022/05/13 09:09:09;;;;;;;0.57;0.57;;;17.00;99.90;;;;;;5072003;28;20415;-70
2022/05/13 09:12:13;;;;;;;0.37;0.37;;;16.90;99.90;;;;;;5071984;28;20410;-73
2022/05/13 09:14:48;;;;;;;0.30;0.30;;;16.90;99.90;;;;;;5073430;28;20572;-71
2022/05/13 09:17:35;;;;;;;0.30;0.30;;;16.60;99.90;;;;;;5072982;28;20395;-72
2022/05/13 09:20:06;;;;;;;0.30;0.30;;;16.60;99.90;;;;;;5073462;28;20411;-72
2022/05/13 09:22:52;;;;;;;0.30;0.30;;;16.70;99.90;;;;;;5073054;28;20431;-73
2022/05/13 09:26:03;;;;;;;0.30;0.30;;;16.60;99.90;;;;;;5073139;28;20772;-72
2022/05/13 09:28:31;;;;;;;0.40;0.40;;;16.60;99.90;;;;;;5068819;28;20476;-72
2022/05/13 09:31:19;;;;;;;0.37;0.37;;;16.60;99.90;;;;;;5072796;28;20487;-72
2022/05/13 09:33:47;;;;;;;0.60;0.60;;;16.60;99.90;;;;;;5075858;28;20432;-72
2022/05/13 09:36:21;;;;;;;0.30;0.30;;;16.60;99.90;;;;;;5077050;28;20408;-72
2022/05/13 09:38:57;;;;;;;0.30;0.30;;;16.70;99.90;;;;;;5077206;28;20442;-72
2022/05/13 09:41:34;;;;;;;0.40;0.40;;;16.70;99.90;;;;;;5076693;28;20404;-72
2022/05/13 09:44:10;;;;;;;1.33;1.23;;;16.80;99.90;;;;;;5076850;28;20431;-73
2022/05/13 09:46:47;;;;;;;0.30;0.30;;;16.90;99.90;;;;;;5077035;28;20778;-72
2022/05/13 09:49:24;;;;;;;0.30;0.30;;;16.80;99.90;;;;;;5076547;28;20877;-72
2022/05/13 09:51:54;;;;;;;0.40;0.40;;;16.90;99.90;;;;;;5074302;28;20411;-72
2022/05/13 09:54:33;;;;;;;0.30;0.30;;;17.10;99.90;;;;;;5074808;28;20459;-72
2022/05/13 09:57:07;;;;;;;0.30;0.30;;;17.20;99.90;;;;;;5076479;28;20825;-72
2022/05/13 09:59:52;;;;;;;0.30;0.30;;;17.30;99.90;;;;;;5076402;28;20439;-72
2022/05/13 10:02:37;;;;;;;0.30;0.30;;;17.30;99.90;;;;;;5076084;28;20483;-72
2022/05/13 10:05:19;;;;;;;0.50;0.50;;;17.40;99.90;;;;;;5076292;28;20498;-72
2022/05/13 10:08:09;;;;;;;0.50;0.50;;;17.40;99.90;;;;;;5076125;28;20408;-73
2022/05/13 10:16:15;;;;;;;0.30;0.30;;;17.40;99.90;;;;;;5076280;28;20385;-73
2022/05/13 10:18:54;;;;;;;0.30;0.30;;;17.30;99.90;;;;;;5075849;28;20457;-72
2022/05/13 10:21:48;;;;;;;0.40;0.40;;;17.30;99.90;;;;;;5075822;28;20761;-72
2022/05/13 10:24:44;;;;;;;0.30;0.30;;;17.20;99.90;;;;;;5075393;28;20458;-72
2022/05/13 10:27:30;;;;;;;0.83;0.83;;;17.10;99.90;;;;;;5075840;28;20791;-72
2022/05/13 10:30:06;;;;;;;0.50;0.50;;;17.00;99.90;;;;;;5075862;28;20966;-72
2022/05/13 10:32:50;;;;;;;0.40;0.40;;;16.90;99.90;;;;;;5075857;28;20490;-73
2022/05/13 10:35:21;;;;;;;0.30;0.30;;;16.70;99.90;;;;;;5075806;28;20433;-72
2022/05/13 10:38:11;;;;;;;0.50;0.50;;;16.60;99.90;;;;;;5075612;28;20756;-72
2022/05/13 10:40:41;;;;;;;0.30;0.30;;;16.50;99.90;;;;;;5074923;28;20408;-72
2022/05/13 10:43:19;;;;;;;1.27;0.97;;;16.50;99.90;;;;;;5075098;28;20790;-72
2022/05/13 10:45:45;;;;;;;1.80;1.33;;;16.50;99.90;;;;;;5073922;28;20497;-72
2022/05/13 10:48:26;;;;;;;0.30;0.30;;;16.60;99.90;;;;;;5075587;28;20770;-72
2022/05/13 10:51:17;;;;;;;0.47;0.47;;;16.60;99.90;;;;;;5073583;28;20477;-74
2022/05/13 10:53:56;;;;;;;1.03;1.03;;;16.60;99.90;;;;;;5074609;28;20472;-71
2022/05/13 10:56:22;;;;;;;0.30;0.30;;;16.60;99.90;;;;;;5075754;28;20487;-72
2022/05/13 10:59:10;;;;;;;0.30;0.30;;;16.70;99.90;;;;;;5072978;28;20523;-70
2022/05/13 11:01:54;;;;;;;0.60;0.60;;;16.90;99.90;;;;;;5075237;28;20173;-70
2022/05/13 11:04:41;;;;;;;0.30;0.30;;;17.10;99.90;;;;;;5074522;28;20792;-72
2022/05/13 11:07:13;;;;;;;0.40;0.40;;;17.40;99.90;;;;;;5074390;28;20403;-72
2022/05/13 11:09:46;;;;;;;0.30;0.30;;;17.60;99.90;;;;;;5075294;28;20449;-71
2022/05/13 11:12:26;;;;;;;0.30;0.30;;;18.10;99.90;;;;;;5074883;28;20407;-71
2022/05/13 11:15:11;;;;;;;0.50;0.50;;;18.60;99.90;;;;;;5074923;28;20921;-72
2022/05/13 11:17:52;;;;;;;0.47;0.47;;;19.00;99.90;;;;;;5075244;28;20454;-72
2022/05/13 11:20:50;;;;;;;0.30;0.30;;;19.60;99.90;;;;;;5075072;28;20803;-70
2022/05/13 11:23:22;;;;;;;0.50;0.50;;;20.30;99.90;;;;;;5074683;28;20462;-71
2022/05/13 11:25:57;;;;;;;0.30;0.30;;;20.30;99.70;;;;;;5074727;28;20410;-71
2022/05/13 11:28:47;;;;;;;0.30;0.30;;;20.50;99.90;;;;;;5074526;28;20443;-70
2022/05/13 11:31:35;;;;;;;0.30;0.30;;;20.90;99.30;;;;;;5074539;28;20475;-72
2022/05/13 11:34:20;;;;;;;0.50;0.50;;;21.30;99.90;;;;;;5073060;28;20432;-71
2022/05/13 11:36:57;;;;;;;0.30;0.30;;;21.40;99.80;;;;;;5073454;28;20455;-71
2022/05/13 11:39:53;;;;;;;0.30;0.30;;;21.30;98.80;;;;;;5074584;28;20458;-71
2022/05/13 11:42:24;;;;;;;0.30;0.30;;;20.90;98.50;;;;;;5074318;28;20411;-70
2022/05/13 11:45:26;;;;;;;0.30;0.30;;;20.80;98.30;;;;;;5074645;28;20403;-73
2022/05/13 11:47:56;;;;;;;0.30;0.30;;;20.50;98.30;;;;;;5074844;28;20729;-72
2022/05/13 11:50:28;;;;;;;0.30;0.30;;;20.60;99.20;;;;;;5074316;28;20459;-69
2022/05/13 11:52:56;;;;;;;0.70;0.70;;;21.00;99.40;;;;;;5073408;28;20421;-71
2022/05/13 11:55:34;;;;;;;0.40;0.40;;;21.10;97.90;;;;;;5074492;28;20458;-70
2022/05/13 11:57:59;;;;;;;0.30;0.30;;;21.20;97.90;;;;;;5074459;28;20398;-70
2022/05/13 12:00:33;;;;;;;0.30;0.30;;;21.20;97.90;;;;;;5073868;28;20822;-70
2022/05/13 12:03:08;;;;;;;0.30;0.30;;;21.00;97.30;;;;;;5073966;28;20196;-70
2022/05/13 12:06:00;;;;;;;0.57;0.57;;;21.20;97.90;;;;;;5074216;28;20768;-71
2022/05/13 12:08:31;;;;;;;0.30;0.30;;;21.40;98.10;;;;;;5072078;28;20450;-72
2022/05/13 12:11:03;;;;;;;0.30;0.30;;;21.40;98.40;;;;;;5069868;28;20464;-72
2022/05/13 12:13:49;;;;;;;1.23;0.87;;;21.10;97.80;;;;;;5070560;28;20441;-72
2022/05/13 12:16:42;;;;;;;0.30;0.30;;;20.80;98.50;;;;;;5074124;28;20409;-73
2022/05/13 12:19:28;;;;;;;0.30;0.30;;;20.60;98.50;;;;;;5073859;28;20413;-72
2022/05/13 12:22:23;;;;;;;0.30;0.30;;;20.00;97.80;;;;;;5073410;28;20407;-72
2022/05/13 12:25:08;;;;;;;0.30;0.30;;;19.70;98.40;;;;;;5073555;28;20442;-72
2022/05/13 12:27:37;;;;;;;0.30;0.30;;;19.60;99.50;;;;;;5073856;28;20414;-72
2022/05/13 12:30:08;;;;;;;0.30;0.30;;;19.60;99.90;;;;;;5073468;28;20507;-72
2022/05/13 12:32:46;;;;;;;0.30;0.30;;;19.50;99.90;;;;;;5073737;28;20525;-72
2022/05/13 12:38:20;;;;;;;0.30;0.30;;;19.30;99.90;;;;;;5073454;28;20489;-72
2022/05/13 12:40:55;;;;;;;0.30;0.30;;;19.20;99.90;;;;;;5073211;28;20442;-72
2022/05/13 12:43:42;;;;;;;0.30;0.30;;;19.20;99.90;;;;;;5073423;28;20775;-72
2022/05/13 12:46:19;;;;;;;0.30;0.30;;;19.50;99.90;;;;;;5071852;28;20450;-73
2022/05/13 12:49:09;;;;;;;0.30;0.30;;;20.00;99.90;;;;;;5073595;28;20453;-73
2022/05/13 12:52:12;;;;;;;0.30;0.30;;;20.20;98.90;;;;;;5071666;28;20916;-73
2022/05/13 12:54:51;;;;;;;0.30;0.30;;;20.20;99.10;;;;;;5072109;28;20467;-73
2022/05/13 12:57:31;;;;;;;0.30;0.30;;;20.40;98.90;;;;;;5071589;28;20495;-73
2022/05/13 12:59:58;;;;;;;0.30;0.30;;;20.60;99.10;;;;;;5071061;28;20475;-73
2022/05/13 13:02:27;;;;;;;0.30;0.30;;;20.70;98.20;;;;;;5073156;28;20407;-73
2022/05/13 13:04:57;;;;;;;0.83;0.50;;;20.60;98.20;;;;;;5074708;28;20494;-73
2022/05/13 13:07:25;;;;;;;0.57;0.57;;;20.50;98.50;;;;;;5077092;28;20410;-73
2022/05/13 13:09:51;;;;;;;0.30;0.30;;;20.30;99.40;;;;;;5077091;28;20516;-73
2022/05/13 13:12:38;;;;;;;0.40;0.40;;;20.20;99.80;;;;;;5076933;28;20412;-73
2022/05/13 13:15:06;;;;;;;0.30;0.30;;;19.90;99.00;;;;;;5077107;28;20197;-73
2022/05/13 13:18:08;;;;;;;0.43;0.43;;;19.70;99.90;;;;;;5077003;28;20460;-73
2022/05/13 13:20:48;;;;;;;0.50;0.40;;;19.80;99.90;;;;;;5077123;28;20421;-73
2022/05/13 13:23:15;;;;;;;0.30;0.30;;;20.20;99.90;;;;;;5076750;28;20782;-73
2022/05/13 13:25:48;;;;;;;0.30;0.30;;;20.50;99.50;;;;;;5076834;28;20412;-73
2022/05/13 13:28:23;;;;;;;0.40;0.40;;;20.70;97.80;;;;;;5076723;28;20444;-73
2022/05/13 13:30:58;;;;;;;0.30;0.30;;;20.60;97.20;;;;;;5076660;28;20955;-73
2022/05/13 13:33:29;;;;;;;0.30;0.30;;;20.40;98.20;;;;;;5076765;28;20428;-73
2022/05/13 13:36:12;;;;;;;0.30;0.30;;;20.80;98.20;;;;;;5075371;28;20908;-73